sensor_id;sensor_type;location;lat;lon;timestamp;P1;durP1;ratioP1;P2;durP2;ratioP2
76495;SDS011;65329;52.544;4.662;2023-04-01T00:02:03;26.08;;;5.32;;
76495;SDS011;65329;52.544;4.662;2023-04-01T00:04:30;21.65;;;5.55;;
76495;SDS011;65329;52.544;4.662;2023-04-01T00:06:57;20.13;;;4.90;;
76495;SDS011;65329;52.544;4.662;2023-04-01T00:09:24;20.20;;;5.28;;
76495;SDS011;65329;52.544;4.662;2023-04-01T00:11:55;23.80;;;6.63;;
76495;SDS011;65329;52.544;4.662;2023-04-01T00:14:23;15.32;;;4.22;;
76495;SDS011;65329;52.544;4.662;2023-04-01T00:16:51;22.20;;;5.18;;
76495;SDS011;65329;52.544;4.662;2023-04-01T00:19:19;19.38;;;5.13;;
76495;SDS011;65329;52.544;4.662;2023-04-01T00:21:46;20.35;;;7.25;;
76495;SDS011;65329;52.544;4.662;2023-04-01T00:24:14;37.70;;;15.43;;
76495;SDS011;65329;52.544;4.662;2023-04-01T00:26:41;38.60;;;16.52;;
76495;SDS011;65329;52.544;4.662;2023-04-01T00:29:09;38.60;;;14.65;;
76495;SDS011;65329;52.544;4.662;2023-04-01T00:31:36;19.20;;;8.05;;
76495;SDS011;65329;52.544;4.662;2023-04-01T00:34:03;21.55;;;8.23;;
76495;SDS011;65329;52.544;4.662;2023-04-01T00:36:30;19.75;;;6.45;;
76495;SDS011;65329;52.544;4.662;2023-04-01T00:38:57;24.25;;;8.15;;
76495;SDS011;65329;52.544;4.662;2023-04-01T00:41:26;27.30;;;9.95;;
76495;SDS011;65329;52.544;4.662;2023-04-01T00:44:11;25.67;;;8.52;;
76495;SDS011;65329;52.544;4.662;2023-04-01T00:46:45;17.30;;;6.30;;
76495;SDS011;65329;52.544;4.662;2023-04-01T00:49:13;17.25;;;6.10;;
76495;SDS011;65329;52.544;4.662;2023-04-01T00:51:48;16.73;;;6.70;;
76495;SDS011;65329;52.544;4.662;2023-04-01T00:54:18;17.17;;;6.25;;
76495;SDS011;65329;52.544;4.662;2023-04-01T00:57:00;16.80;;;6.57;;
76495;SDS011;65329;52.544;4.662;2023-04-01T00:59:49;16.48;;;6.13;;
76495;SDS011;65329;52.544;4.662;2023-04-01T01:02:20;15.00;;;5.50;;
76495;SDS011;65329;52.544;4.662;2023-04-01T01:04:48;13.75;;;6.28;;
76495;SDS011;65329;52.544;4.662;2023-04-01T01:12:31;14.25;;;5.10;;
76495;SDS011;65329;52.544;4.662;2023-04-01T01:15:09;11.50;;;5.22;;
76495;SDS011;65329;52.544;4.662;2023-04-01T01:17:53;9.02;;;4.20;;
76495;SDS011;65329;52.544;4.662;2023-04-01T01:31:37;5.30;;;2.25;;
76495;SDS011;65329;52.544;4.662;2023-04-01T01:34:14;5.85;;;2.55;;
76495;SDS011;65329;52.544;4.662;2023-04-01T01:37:13;7.53;;;3.45;;
76495;SDS011;65329;52.544;4.662;2023-04-01T01:39:44;6.90;;;3.17;;
76495;SDS011;65329;52.544;4.662;2023-04-01T01:42:15;10.02;;;4.55;;
76495;SDS011;65329;52.544;4.662;2023-04-01T01:44:45;8.45;;;3.85;;
76495;SDS011;65329;52.544;4.662;2023-04-01T01:47:15;8.52;;;4.35;;
76495;SDS011;65329;52.544;4.662;2023-04-01T01:49:45;7.45;;;4.30;;
76495;SDS011;65329;52.544;4.662;2023-04-01T01:52:12;8.68;;;3.95;;
76495;SDS011;65329;52.544;4.662;2023-04-01T01:54:47;7.65;;;3.75;;
76495;SDS011;65329;52.544;4.662;2023-04-01T01:57:21;8.32;;;3.83;;
76495;SDS011;65329;52.544;4.662;2023-04-01T01:59:59;6.57;;;3.55;;
76495;SDS011;65329;52.544;4.662;2023-04-01T02:02:41;8.38;;;3.15;;
76495;SDS011;65329;52.544;4.662;2023-04-01T02:05:14;9.27;;;4.40;;
76495;SDS011;65329;52.544;4.662;2023-04-01T02:07:46;7.60;;;3.85;;
76495;SDS011;65329;52.544;4.662;2023-04-01T02:10:23;8.05;;;3.92;;
76495;SDS011;65329;52.544;4.662;2023-04-01T02:12:54;6.95;;;3.78;;
76495;SDS011;65329;52.544;4.662;2023-04-01T02:15:27;8.68;;;4.43;;
76495;SDS011;65329;52.544;4.662;2023-04-01T02:17:58;7.45;;;3.67;;
76495;SDS011;65329;52.544;4.662;2023-04-01T02:20:26;8.52;;;4.40;;
76495;SDS011;65329;52.544;4.662;2023-04-01T02:22:56;9.55;;;4.65;;
76495;SDS011;65329;52.544;4.662;2023-04-01T02:25:27;8.35;;;4.75;;
76495;SDS011;65329;52.544;4.662;2023-04-01T02:27:57;10.82;;;5.30;;
76495;SDS011;65329;52.544;4.662;2023-04-01T02:30:29;8.70;;;4.97;;
76495;SDS011;65329;52.544;4.662;2023-04-01T02:33:00;9.77;;;4.80;;
76495;SDS011;65329;52.544;4.662;2023-04-01T02:35:32;10.02;;;4.88;;
76495;SDS011;65329;52.544;4.662;2023-04-01T02:38:02;9.50;;;5.40;;
76495;SDS011;65329;52.544;4.662;2023-04-01T02:40:39;10.10;;;5.40;;
76495;SDS011;65329;52.544;4.662;2023-04-01T02:43:07;10.15;;;5.45;;
76495;SDS011;65329;52.544;4.662;2023-04-01T02:45:35;13.18;;;6.18;;
76495;SDS011;65329;52.544;4.662;2023-04-01T02:48:02;10.90;;;5.97;;
76495;SDS011;65329;52.544;4.662;2023-04-01T02:50:41;11.60;;;6.85;;
76495;SDS011;65329;52.544;4.662;2023-04-01T02:53:09;11.38;;;6.20;;
76495;SDS011;65329;52.544;4.662;2023-04-01T02:55:37;10.32;;;5.38;;
76495;SDS011;65329;52.544;4.662;2023-04-01T02:58:04;10.60;;;5.82;;
76495;SDS011;65329;52.544;4.662;2023-04-01T03:00:31;9.77;;;5.50;;
76495;SDS011;65329;52.544;4.662;2023-04-01T03:02:58;10.27;;;5.57;;
76495;SDS011;65329;52.544;4.662;2023-04-01T03:05:27;13.27;;;5.88;;
76495;SDS011;65329;52.544;4.662;2023-04-01T03:07:54;12.02;;;5.90;;
76495;SDS011;65329;52.544;4.662;2023-04-01T03:10:22;11.15;;;6.07;;
76495;SDS011;65329;52.544;4.662;2023-04-01T03:12:49;12.32;;;6.32;;
76495;SDS011;65329;52.544;4.662;2023-04-01T03:15:16;14.02;;;6.82;;
76495;SDS011;65329;52.544;4.662;2023-04-01T03:17:43;12.07;;;5.72;;
76495;SDS011;65329;52.544;4.662;2023-04-01T03:20:11;10.05;;;5.13;;
76495;SDS011;65329;52.544;4.662;2023-04-01T03:22:38;10.50;;;5.30;;
76495;SDS011;65329;52.544;4.662;2023-04-01T03:25:08;11.20;;;5.70;;
76495;SDS011;65329;52.544;4.662;2023-04-01T03:27:37;10.23;;;4.85;;
76495;SDS011;65329;52.544;4.662;2023-04-01T03:30:05;13.82;;;7.40;;
76495;SDS011;65329;52.544;4.662;2023-04-01T03:32:39;16.77;;;6.57;;
76495;SDS011;65329;52.544;4.662;2023-04-01T03:35:07;19.80;;;7.28;;
76495;SDS011;65329;52.544;4.662;2023-04-01T03:37:36;13.07;;;5.60;;
76495;SDS011;65329;52.544;4.662;2023-04-01T03:40:04;13.90;;;6.97;;
76495;SDS011;65329;52.544;4.662;2023-04-01T03:42:32;16.88;;;6.57;;
76495;SDS011;65329;52.544;4.662;2023-04-01T03:44:59;16.17;;;7.15;;
76495;SDS011;65329;52.544;4.662;2023-04-01T03:47:28;20.52;;;7.60;;
76495;SDS011;65329;52.544;4.662;2023-04-01T03:49:56;12.95;;;5.32;;
76495;SDS011;65329;52.544;4.662;2023-04-01T03:52:25;13.70;;;5.63;;
76495;SDS011;65329;52.544;4.662;2023-04-01T03:54:52;13.15;;;5.65;;
76495;SDS011;65329;52.544;4.662;2023-04-01T03:57:20;13.45;;;6.00;;
76495;SDS011;65329;52.544;4.662;2023-04-01T03:59:48;15.35;;;6.22;;
76495;SDS011;65329;52.544;4.662;2023-04-01T04:02:15;15.88;;;5.72;;
76495;SDS011;65329;52.544;4.662;2023-04-01T04:04:43;15.07;;;5.65;;
76495;SDS011;65329;52.544;4.662;2023-04-01T04:07:11;14.02;;;5.90;;
76495;SDS011;65329;52.544;4.662;2023-04-01T04:09:57;14.15;;;5.93;;
76495;SDS011;65329;52.544;4.662;2023-04-01T04:12:25;9.10;;;5.43;;
76495;SDS011;65329;52.544;4.662;2023-04-01T04:14:53;15.65;;;5.70;;
76495;SDS011;65329;52.544;4.662;2023-04-01T04:17:20;14.02;;;5.53;;
76495;SDS011;65329;52.544;4.662;2023-04-01T04:19:48;14.13;;;6.20;;
76495;SDS011;65329;52.544;4.662;2023-04-01T04:22:15;14.57;;;5.65;;
76495;SDS011;65329;52.544;4.662;2023-04-01T04:24:42;14.63;;;5.90;;
76495;SDS011;65329;52.544;4.662;2023-04-01T04:27:12;14.77;;;6.28;;
76495;SDS011;65329;52.544;4.662;2023-04-01T04:29:55;13.18;;;5.57;;
76495;SDS011;65329;52.544;4.662;2023-04-01T04:32:22;17.33;;;5.28;;
76495;SDS011;65329;52.544;4.662;2023-04-01T04:34:51;15.45;;;5.28;;
76495;SDS011;65329;52.544;4.662;2023-04-01T04:37:18;12.32;;;4.97;;
76495;SDS011;65329;52.544;4.662;2023-04-01T04:39:46;14.77;;;5.00;;
76495;SDS011;65329;52.544;4.662;2023-04-01T04:42:13;16.85;;;6.03;;
76495;SDS011;65329;52.544;4.662;2023-04-01T04:44:42;16.33;;;5.78;;
76495;SDS011;65329;52.544;4.662;2023-04-01T04:47:09;11.35;;;4.97;;
76495;SDS011;65329;52.544;4.662;2023-04-01T04:49:37;12.85;;;5.88;;
76495;SDS011;65329;52.544;4.662;2023-04-01T04:52:07;16.35;;;5.88;;
76495;SDS011;65329;52.544;4.662;2023-04-01T04:54:35;18.92;;;7.10;;
76495;SDS011;65329;52.544;4.662;2023-04-01T04:57:04;16.23;;;5.70;;
76495;SDS011;65329;52.544;4.662;2023-04-01T04:59:37;14.02;;;5.43;;
76495;SDS011;65329;52.544;4.662;2023-04-01T05:02:11;14.25;;;5.75;;
76495;SDS011;65329;52.544;4.662;2023-04-01T05:04:39;13.45;;;5.40;;
76495;SDS011;65329;52.544;4.662;2023-04-01T05:07:08;10.25;;;4.88;;
76495;SDS011;65329;52.544;4.662;2023-04-01T05:09:37;15.07;;;5.90;;
76495;SDS011;65329;52.544;4.662;2023-04-01T05:12:07;13.93;;;6.05;;
76495;SDS011;65329;52.544;4.662;2023-04-01T05:14:53;10.57;;;5.85;;
76495;SDS011;65329;52.544;4.662;2023-04-01T05:17:22;13.05;;;6.00;;
76495;SDS011;65329;52.544;4.662;2023-04-01T05:19:52;15.25;;;6.03;;
76495;SDS011;65329;52.544;4.662;2023-04-01T05:22:19;15.23;;;5.93;;
76495;SDS011;65329;52.544;4.662;2023-04-01T05:24:47;16.90;;;6.32;;
76495;SDS011;65329;52.544;4.662;2023-04-01T05:27:15;12.65;;;5.75;;
76495;SDS011;65329;52.544;4.662;2023-04-01T05:29:43;16.35;;;6.53;;
76495;SDS011;65329;52.544;4.662;2023-04-01T05:32:30;14.70;;;6.05;;
76495;SDS011;65329;52.544;4.662;2023-04-01T05:34:59;16.88;;;6.60;;
76495;SDS011;65329;52.544;4.662;2023-04-01T05:37:29;16.27;;;6.53;;
76495;SDS011;65329;52.544;4.662;2023-04-01T05:39:57;16.15;;;6.35;;
76495;SDS011;65329;52.544;4.662;2023-04-01T05:42:25;15.60;;;5.90;;
76495;SDS011;65329;52.544;4.662;2023-04-01T05:44:52;15.63;;;6.25;;
76495;SDS011;65329;52.544;4.662;2023-04-01T05:47:42;14.02;;;5.00;;
76495;SDS011;65329;52.544;4.662;2023-04-01T05:50:11;12.95;;;5.32;;
76495;SDS011;65329;52.544;4.662;2023-04-01T05:52:38;14.27;;;5.95;;
76495;SDS011;65329;52.544;4.662;2023-04-01T05:55:09;17.70;;;6.90;;
76495;SDS011;65329;52.544;4.662;2023-04-01T05:57:36;13.75;;;5.88;;
76495;SDS011;65329;52.544;4.662;2023-04-01T06:00:06;16.33;;;6.35;;
76495;SDS011;65329;52.544;4.662;2023-04-01T06:02:39;17.73;;;6.70;;
76495;SDS011;65329;52.544;4.662;2023-04-01T06:05:17;18.13;;;6.38;;
76495;SDS011;65329;52.544;4.662;2023-04-01T06:07:48;19.30;;;7.53;;
76495;SDS011;65329;52.544;4.662;2023-04-01T06:10:39;17.92;;;6.57;;
76495;SDS011;65329;52.544;4.662;2023-04-01T06:24:44;19.92;;;7.47;;
76495;SDS011;65329;52.544;4.662;2023-04-01T06:41:07;17.85;;;6.55;;
76495;SDS011;65329;52.544;4.662;2023-04-01T06:50:16;20.25;;;6.95;;
76495;SDS011;65329;52.544;4.662;2023-04-01T06:53:32;17.02;;;6.43;;
76495;SDS011;65329;52.544;4.662;2023-04-01T06:56:32;17.80;;;7.20;;
76495;SDS011;65329;52.544;4.662;2023-04-01T06:59:10;22.55;;;7.70;;
76495;SDS011;65329;52.544;4.662;2023-04-01T07:01:52;23.58;;;7.93;;
76495;SDS011;65329;52.544;4.662;2023-04-01T07:04:43;20.02;;;6.63;;
76495;SDS011;65329;52.544;4.662;2023-04-01T07:07:21;19.65;;;7.50;;
76495;SDS011;65329;52.544;4.662;2023-04-01T07:10:04;17.95;;;5.97;;
76495;SDS011;65329;52.544;4.662;2023-04-01T07:13:04;14.52;;;6.18;;
76495;SDS011;65329;52.544;4.662;2023-04-01T07:16:15;15.45;;;6.15;;
76495;SDS011;65329;52.544;4.662;2023-04-01T07:24:34;13.93;;;6.13;;
76495;SDS011;65329;52.544;4.662;2023-04-01T07:27:09;15.57;;;5.45;;
76495;SDS011;65329;52.544;4.662;2023-04-01T07:29:41;14.90;;;6.30;;
76495;SDS011;65329;52.544;4.662;2023-04-01T07:37:57;15.20;;;5.95;;
76495;SDS011;65329;52.544;4.662;2023-04-01T07:40:42;16.23;;;6.38;;
76495;SDS011;65329;52.544;4.662;2023-04-01T07:49:15;14.93;;;5.78;;
76495;SDS011;65329;52.544;4.662;2023-04-01T07:52:13;14.10;;;5.22;;
76495;SDS011;65329;52.544;4.662;2023-04-01T07:58:05;11.63;;;4.88;;
76495;SDS011;65329;52.544;4.662;2023-04-01T08:00:59;12.07;;;4.55;;
76495;SDS011;65329;52.544;4.662;2023-04-01T08:04:03;10.55;;;4.50;;
76495;SDS011;65329;52.544;4.662;2023-04-01T08:06:41;9.25;;;4.00;;
76495;SDS011;65329;52.544;4.662;2023-04-01T08:18:47;4.90;;;1.92;;
76495;SDS011;65329;52.544;4.662;2023-04-01T08:21:30;4.38;;;2.10;;
76495;SDS011;65329;52.544;4.662;2023-04-01T08:24:07;6.03;;;2.67;;
76495;SDS011;65329;52.544;4.662;2023-04-01T08:26:49;4.18;;;2.13;;
76495;SDS011;65329;52.544;4.662;2023-04-01T08:29:23;7.85;;;3.05;;
76495;SDS011;65329;52.544;4.662;2023-04-01T08:32:06;6.30;;;3.17;;
76495;SDS011;65329;52.544;4.662;2023-04-01T08:35:18;6.05;;;3.75;;
76495;SDS011;65329;52.544;4.662;2023-04-01T08:37:56;7.15;;;3.30;;
76495;SDS011;65329;52.544;4.662;2023-04-01T08:46:18;12.55;;;5.10;;
76495;SDS011;65329;52.544;4.662;2023-04-01T09:15:30;7.10;;;4.45;;
76495;SDS011;65329;52.544;4.662;2023-04-01T09:31:59;12.40;;;5.72;;
76495;SDS011;65329;52.544;4.662;2023-04-01T09:57:30;9.90;;;4.85;;
76495;SDS011;65329;52.544;4.662;2023-04-01T10:20:39;12.77;;;6.25;;
76495;SDS011;65329;52.544;4.662;2023-04-01T10:35:14;11.23;;;5.45;;
76495;SDS011;65329;52.544;4.662;2023-04-01T10:38:20;15.73;;;6.15;;
76495;SDS011;65329;52.544;4.662;2023-04-01T10:49:37;13.10;;;5.18;;
76495;SDS011;65329;52.544;4.662;2023-04-01T11:01:35;7.90;;;4.93;;
76495;SDS011;65329;52.544;4.662;2023-04-01T11:31:34;9.68;;;4.90;;
76495;SDS011;65329;52.544;4.662;2023-04-01T11:36:35;9.23;;;4.80;;
76495;SDS011;65329;52.544;4.662;2023-04-01T11:42:58;9.68;;;4.47;;
76495;SDS011;65329;52.544;4.662;2023-04-01T12:05:20;7.63;;;4.07;;
76495;SDS011;65329;52.544;4.662;2023-04-01T12:11:21;7.38;;;3.25;;
76495;SDS011;65329;52.544;4.662;2023-04-01T12:16:39;7.60;;;3.30;;
76495;SDS011;65329;52.544;4.662;2023-04-01T12:41:26;8.30;;;3.63;;
76495;SDS011;65329;52.544;4.662;2023-04-01T12:52:49;7.78;;;3.00;;
76495;SDS011;65329;52.544;4.662;2023-04-01T12:55:45;9.35;;;3.55;;
76495;SDS011;65329;52.544;4.662;2023-04-01T13:06:48;8.85;;;4.00;;
76495;SDS011;65329;52.544;4.662;2023-04-01T13:21:05;6.05;;;2.90;;
76495;SDS011;65329;52.544;4.662;2023-04-01T13:23:45;7.07;;;3.90;;
76495;SDS011;65329;52.544;4.662;2023-04-01T13:32:05;6.28;;;3.42;;
76495;SDS011;65329;52.544;4.662;2023-04-01T13:38:03;5.97;;;3.35;;
76495;SDS011;65329;52.544;4.662;2023-04-01T13:40:49;9.38;;;4.38;;
76495;SDS011;65329;52.544;4.662;2023-04-01T13:43:31;8.98;;;4.05;;
76495;SDS011;65329;52.544;4.662;2023-04-01T14:11:50;7.40;;;4.35;;
76495;SDS011;65329;52.544;4.662;2023-04-01T14:17:26;8.07;;;4.55;;
76495;SDS011;65329;52.544;4.662;2023-04-01T14:20:17;10.15;;;4.88;;
76495;SDS011;65329;52.544;4.662;2023-04-01T14:23:25;4.53;;;2.95;;
76495;SDS011;65329;52.544;4.662;2023-04-01T14:26:35;4.97;;;3.28;;
76495;SDS011;65329;52.544;4.662;2023-04-01T14:34:45;5.00;;;3.45;;
76495;SDS011;65329;52.544;4.662;2023-04-01T14:43:12;4.82;;;3.20;;
76495;SDS011;65329;52.544;4.662;2023-04-01T14:45:43;6.10;;;3.08;;
76495;SDS011;65329;52.544;4.662;2023-04-01T14:48:21;5.18;;;3.70;;
76495;SDS011;65329;52.544;4.662;2023-04-01T14:50:50;5.32;;;3.03;;
76495;SDS011;65329;52.544;4.662;2023-04-01T14:55:50;4.88;;;3.10;;
76495;SDS011;65329;52.544;4.662;2023-04-01T14:58:22;5.45;;;2.85;;
76495;SDS011;65329;52.544;4.662;2023-04-01T15:04:00;4.95;;;3.10;;
76495;SDS011;65329;52.544;4.662;2023-04-01T15:09:45;6.93;;;3.40;;
76495;SDS011;65329;52.544;4.662;2023-04-01T15:18:04;4.90;;;2.83;;
76495;SDS011;65329;52.544;4.662;2023-04-01T15:21:15;7.75;;;3.50;;
76495;SDS011;65329;52.544;4.662;2023-04-01T15:26:53;4.30;;;2.10;;
76495;SDS011;65329;52.544;4.662;2023-04-01T15:29:50;4.80;;;2.22;;
76495;SDS011;65329;52.544;4.662;2023-04-01T15:32:45;6.20;;;2.42;;
76495;SDS011;65329;52.544;4.662;2023-04-01T15:44:43;3.10;;;2.50;;
76495;SDS011;65329;52.544;4.662;2023-04-01T15:55:59;2.28;;;1.80;;
76495;SDS011;65329;52.544;4.662;2023-04-01T15:59:07;4.78;;;2.72;;
76495;SDS011;65329;52.544;4.662;2023-04-01T16:04:50;5.22;;;3.60;;
76495;SDS011;65329;52.544;4.662;2023-04-01T16:22:14;2.53;;;1.92;;
76495;SDS011;65329;52.544;4.662;2023-04-01T16:35:37;3.25;;;2.38;;
76495;SDS011;65329;52.544;4.662;2023-04-01T16:38:25;3.67;;;2.38;;
76495;SDS011;65329;52.544;4.662;2023-04-01T16:47:05;4.20;;;2.50;;
76495;SDS011;65329;52.544;4.662;2023-04-01T16:50:27;3.22;;;2.42;;
76495;SDS011;65329;52.544;4.662;2023-04-01T16:53:02;2.55;;;2.20;;
76495;SDS011;65329;52.544;4.662;2023-04-01T16:58:37;2.42;;;2.05;;
76495;SDS011;65329;52.544;4.662;2023-04-01T17:01:27;3.13;;;1.95;;
76495;SDS011;65329;52.544;4.662;2023-04-01T17:04:17;2.00;;;1.50;;
76495;SDS011;65329;52.544;4.662;2023-04-01T17:23:31;2.60;;;2.00;;
76495;SDS011;65329;52.544;4.662;2023-04-01T17:26:02;4.60;;;2.55;;
76495;SDS011;65329;52.544;4.662;2023-04-01T17:41:42;3.97;;;2.17;;
76495;SDS011;65329;52.544;4.662;2023-04-01T17:43:45;3.30;;;2.30;;
76495;SDS011;65329;52.544;4.662;2023-04-01T17:53:05;3.60;;;2.13;;
76495;SDS011;65329;52.544;4.662;2023-04-01T18:01:08;4.78;;;3.10;;
76495;SDS011;65329;52.544;4.662;2023-04-01T18:21:50;4.15;;;3.33;;
76495;SDS011;65329;52.544;4.662;2023-04-01T18:30:29;5.05;;;3.80;;
76495;SDS011;65329;52.544;4.662;2023-04-01T18:33:17;5.05;;;3.20;;
76495;SDS011;65329;52.544;4.662;2023-04-01T18:52:36;8.35;;;4.70;;
76495;SDS011;65329;52.544;4.662;2023-04-01T19:01:17;5.72;;;4.13;;
76495;SDS011;65329;52.544;4.662;2023-04-01T19:19:52;6.82;;;4.13;;
76495;SDS011;65329;52.544;4.662;2023-04-01T19:25:57;7.10;;;3.78;;
76495;SDS011;65329;52.544;4.662;2023-04-01T19:34:25;6.85;;;4.35;;
76495;SDS011;65329;52.544;4.662;2023-04-01T19:36:59;9.32;;;5.25;;
76495;SDS011;65329;52.544;4.662;2023-04-01T19:47:07;7.50;;;4.35;;
76495;SDS011;65329;52.544;4.662;2023-04-01T19:49:51;8.88;;;6.03;;
76495;SDS011;65329;52.544;4.662;2023-04-01T19:52:27;8.43;;;4.47;;
76495;SDS011;65329;52.544;4.662;2023-04-01T20:01:20;7.35;;;5.15;;
76495;SDS011;65329;52.544;4.662;2023-04-01T20:07:19;5.72;;;3.75;;
76495;SDS011;65329;52.544;4.662;2023-04-01T20:10:31;7.38;;;4.88;;
76495;SDS011;65329;52.544;4.662;2023-04-01T20:16:14;6.55;;;3.95;;
76495;SDS011;65329;52.544;4.662;2023-04-01T20:18:55;8.15;;;5.30;;
76495;SDS011;65329;52.544;4.662;2023-04-01T20:21:36;9.93;;;5.35;;
76495;SDS011;65329;52.544;4.662;2023-04-01T20:24:29;7.72;;;4.47;;
76495;SDS011;65329;52.544;4.662;2023-04-01T20:27:17;10.52;;;5.07;;
76495;SDS011;65329;52.544;4.662;2023-04-01T20:52:32;7.45;;;4.35;;
76495;SDS011;65329;52.544;4.662;2023-04-01T21:04:18;9.70;;;5.35;;
76495;SDS011;65329;52.544;4.662;2023-04-01T21:50:55;11.05;;;5.88;;
76495;SDS011;65329;52.544;4.662;2023-04-01T21:53:56;8.65;;;4.88;;
76495;SDS011;65329;52.544;4.662;2023-04-01T21:56:43;11.82;;;5.00;;
76495;SDS011;65329;52.544;4.662;2023-04-01T22:09:21;7.65;;;3.97;;
76495;SDS011;65329;52.544;4.662;2023-04-01T22:12:13;9.18;;;5.07;;
76495;SDS011;65329;52.544;4.662;2023-04-01T22:21:50;9.93;;;5.10;;
76495;SDS011;65329;52.544;4.662;2023-04-01T22:27:52;9.60;;;5.22;;
76495;SDS011;65329;52.544;4.662;2023-04-01T22:30:32;9.50;;;4.35;;
76495;SDS011;65329;52.544;4.662;2023-04-01T22:38:46;5.60;;;3.10;;
76495;SDS011;65329;52.544;4.662;2023-04-01T22:47:48;8.27;;;4.30;;
76495;SDS011;65329;52.544;4.662;2023-04-01T22:50:50;8.43;;;3.78;;
76495;SDS011;65329;52.544;4.662;2023-04-01T22:57:14;9.93;;;5.53;;
76495;SDS011;65329;52.544;4.662;2023-04-01T23:00:12;7.47;;;4.35;;
76495;SDS011;65329;52.544;4.662;2023-04-01T23:05:53;7.65;;;5.20;;
76495;SDS011;65329;52.544;4.662;2023-04-01T23:20:38;4.78;;;3.00;;
76495;SDS011;65329;52.544;4.662;2023-04-01T23:29:13;6.30;;;3.83;;
76495;SDS011;65329;52.544;4.662;2023-04-01T23:31:59;9.35;;;5.07;;
76495;SDS011;65329;52.544;4.662;2023-04-01T23:34:30;10.77;;;5.05;;
76495;SDS011;65329;52.544;4.662;2023-04-01T23:37:07;10.95;;;5.35;;
76495;SDS011;65329;52.544;4.662;2023-04-01T23:40:02;10.38;;;5.95;;
76495;SDS011;65329;52.544;4.662;2023-04-01T23:42:38;9.68;;;4.85;;
76495;SDS011;65329;52.544;4.662;2023-04-01T23:45:14;11.88;;;5.30;;
76495;SDS011;65329;52.544;4.662;2023-04-01T23:47:55;11.13;;;6.18;;
76495;SDS011;65329;52.544;4.662;2023-04-01T23:50:30;9.90;;;5.20;;
76495;SDS011;65329;52.544;4.662;2023-04-01T23:55:57;5.43;;;3.95;;
76495;SDS011;65329;52.544;4.662;2023-04-01T23:58:26;9.40;;;5.15;;
